Time;durP1;ratioP1;P1;durP2;ratioP2;P2;SDS_P1;SDS_P2;PMS_P1;PMS_P2;Temp;Humidity;BMP_temperature;BMP_pressure;BME280_temperature;BME280_humidity;BME280_pressure;Samples;Min_cycle;Max_cycle;Signal;HPM_P1;HPM_P2
2022/05/30 00:01:51;;;;;;;10.85;7.82;;;;;;;;;;5072770;28;20189;-78
2022/05/30 00:04:17;;;;;;;11.07;8.63;;;;;;;;;;5072269;28;20209;-77
2022/05/30 00:06:43;;;;;;;10.37;7.20;;;;;;;;;;5071494;28;20278;-80
2022/05/30 00:09:13;;;;;;;12.15;7.25;;;;;;;;;;5072746;28;20417;-78
2022/05/30 00:11:39;;;;;;;13.15;7.10;;;;;;;;;;5071483;28;20182;-79
2022/05/30 00:14:05;;;;;;;10.02;6.28;;;;;;;;;;5072220;28;20619;-79
2022/05/30 00:16:31;;;;;;;12.48;7.18;;;;;;;;;;5072440;28;20239;-79
2022/05/30 00:18:57;;;;;;;12.95;7.20;;;;;;;;;;5072430;28;20177;-79
2022/05/30 00:21:24;;;;;;;10.25;6.57;;;;;;;;;;5072483;28;20581;-80
2022/05/30 00:23:53;;;;;;;12.40;6.82;;;;;;;;;;5072223;28;20169;-79
2022/05/30 00:26:20;;;;;;;10.82;6.63;;;;;;;;;;5072411;28;20177;-79
2022/05/30 00:28:46;;;;;;;9.30;6.85;;;;;;;;;;5072857;28;20188;-80
2022/05/30 00:31:13;;;;;;;9.90;6.85;;;;;;;;;;5075515;28;20196;-78
2022/05/30 00:33:40;;;;;;;12.45;6.80;;;;;;;;;;5076274;28;20656;-79
2022/05/30 00:36:06;;;;;;;8.73;7.13;;;;;;;;;;5076556;28;20292;-80
2022/05/30 00:38:32;;;;;;;11.18;6.90;;;;;;;;;;5076619;28;20594;-81
2022/05/30 00:40:58;;;;;;;9.00;6.53;;;;;;;;;;5076679;28;20212;-78
2022/05/30 00:43:26;;;;;;;7.50;6.70;;;;;;;;;;5076309;28;20779;-79
2022/05/30 00:45:52;;;;;;;9.00;5.95;;;;;;;;;;5076568;28;20428;-80
2022/05/30 00:48:19;;;;;;;8.80;6.05;;;;;;;;;;5076353;28;20173;-78
2022/05/30 00:50:46;;;;;;;12.52;5.75;;;;;;;;;;5076342;28;20569;-78
2022/05/30 00:53:13;;;;;;;10.45;6.90;;;;;;;;;;5076096;28;20657;-79
2022/05/30 00:55:40;;;;;;;11.68;6.50;;;;;;;;;;5076221;28;20576;-79
2022/05/30 00:58:08;;;;;;;6.60;6.00;;;;;;;;;;5076246;28;20173;-78
2022/05/30 01:00:34;;;;;;;11.27;6.70;;;;;;;;;;5076094;28;20177;-78
2022/05/30 01:08:30;;;;;;;11.45;6.95;;;;;;;;;;5076352;28;20660;-79
2022/05/30 01:10:56;;;;;;;9.63;5.82;;;;;;;;;;5075995;28;20190;-79
2022/05/30 01:13:23;;;;;;;6.22;5.35;;;;;;;;;;5075672;28;20246;-79
2022/05/30 01:15:50;;;;;;;9.45;5.80;;;;;;;;;;5074588;28;20217;-78
2022/05/30 01:18:22;;;;;;;6.18;5.05;;;;;;;;;;5075934;28;20173;-79
2022/05/30 01:21:07;;;;;;;8.05;5.72;;;;;;;;;;5075976;28;20204;-78
2022/05/30 01:23:33;;;;;;;8.45;5.25;;;;;;;;;;5075668;28;20207;-80
2022/05/30 01:26:24;;;;;;;13.57;6.20;;;;;;;;;;5075803;28;20525;-79
2022/05/30 01:29:09;;;;;;;10.13;5.47;;;;;;;;;;5075671;28;20416;-78
2022/05/30 01:31:35;;;;;;;9.60;6.03;;;;;;;;;;5075563;28;20196;-78
2022/05/30 01:34:02;;;;;;;7.30;5.50;;;;;;;;;;5075266;28;20197;-78
2022/05/30 01:36:29;;;;;;;16.58;6.40;;;;;;;;;;5075498;28;20462;-80
2022/05/30 01:38:55;;;;;;;13.70;6.82;;;;;;;;;;5075370;28;20211;-80
2022/05/30 01:41:22;;;;;;;8.32;6.03;;;;;;;;;;5073635;28;20652;-79
2022/05/30 01:43:48;;;;;;;16.15;6.05;;;;;;;;;;5075129;28;20184;-78
2022/05/30 01:46:16;;;;;;;7.10;5.63;;;;;;;;;;5075439;28;20181;-80
2022/05/30 01:48:42;;;;;;;13.70;5.70;;;;;;;;;;5075235;28;20404;-78
2022/05/30 01:51:08;;;;;;;12.40;5.78;;;;;;;;;;5075234;28;20181;-80
2022/05/30 01:53:34;;;;;;;9.50;4.80;;;;;;;;;;5074039;28;20189;-77
2022/05/30 01:56:00;;;;;;;10.87;5.00;;;;;;;;;;5074987;28;20466;-79
2022/05/30 01:58:26;;;;;;;7.53;5.10;;;;;;;;;;5075239;28;20474;-80
2022/05/30 02:00:52;;;;;;;6.60;4.73;;;;;;;;;;5075187;28;20408;-81
2022/05/30 02:03:18;;;;;;;8.33;4.93;;;;;;;;;;5075474;28;20416;-80
2022/05/30 02:05:44;;;;;;;9.95;5.05;;;;;;;;;;5075777;28;20435;-78
2022/05/30 02:08:10;;;;;;;8.23;5.07;;;;;;;;;;5075557;28;20538;-80
2022/05/30 02:10:36;;;;;;;7.57;5.30;;;;;;;;;;5074990;28;20400;-78
2022/05/30 02:13:02;;;;;;;9.18;4.82;;;;;;;;;;5074713;28;20256;-77
2022/05/30 02:15:28;;;;;;;8.73;5.93;;;;;;;;;;5074709;28;20193;-78
2022/05/30 02:17:54;;;;;;;10.02;5.07;;;;;;;;;;5074847;28;20176;-78
2022/05/30 02:20:21;;;;;;;10.13;5.50;;;;;;;;;;5074891;28;20177;-77
2022/05/30 02:22:47;;;;;;;7.30;4.65;;;;;;;;;;5074709;28;20489;-79
2022/05/30 02:25:13;;;;;;;8.67;5.63;;;;;;;;;;5074228;28;20628;-79
2022/05/30 02:27:41;;;;;;;11.63;5.00;;;;;;;;;;5074598;28;20526;-78
2022/05/30 02:30:08;;;;;;;11.20;6.20;;;;;;;;;;5074422;28;20412;-80
2022/05/30 02:32:34;;;;;;;16.08;5.80;;;;;;;;;;5074478;28;20250;-80
2022/05/30 02:37:44;;;;;;;14.00;5.43;;;;;;;;;;5074344;28;20513;-79
2022/05/30 02:40:11;;;;;;;9.20;4.80;;;;;;;;;;5074354;28;20174;-78
2022/05/30 02:42:37;;;;;;;12.77;6.47;;;;;;;;;;5074367;28;20208;-78
2022/05/30 02:45:03;;;;;;;9.73;4.88;;;;;;;;;;5073908;28;20194;-78
2022/05/30 02:47:29;;;;;;;19.40;4.43;;;;;;;;;;5074071;28;20543;-78
2022/05/30 02:49:55;;;;;;;9.23;4.57;;;;;;;;;;5074179;28;20185;-79
2022/05/30 02:52:21;;;;;;;8.85;4.78;;;;;;;;;;5073204;28;20418;-79
2022/05/30 02:54:47;;;;;;;10.40;5.90;;;;;;;;;;5073338;28;20197;-78
2022/05/30 02:57:13;;;;;;;8.17;5.10;;;;;;;;;;5073805;28;20760;-79
2022/05/30 02:59:39;;;;;;;14.80;5.30;;;;;;;;;;5073913;28;20399;-80
2022/05/30 03:02:05;;;;;;;12.87;5.90;;;;;;;;;;5074020;28;20654;-79
2022/05/30 03:04:31;;;;;;;10.68;5.57;;;;;;;;;;5073675;28;20423;-79
2022/05/30 03:06:57;;;;;;;6.90;4.80;;;;;;;;;;5073867;28;20204;-80
2022/05/30 03:09:23;;;;;;;13.47;5.53;;;;;;;;;;5073346;28;20453;-78
2022/05/30 03:11:49;;;;;;;9.97;5.27;;;;;;;;;;5073741;28;20836;-78
2022/05/30 03:14:15;;;;;;;10.00;4.88;;;;;;;;;;5073280;28;20438;-80
2022/05/30 03:16:41;;;;;;;14.60;5.68;;;;;;;;;;5073542;28;20673;-81
2022/05/30 03:19:07;;;;;;;10.70;4.90;;;;;;;;;;5073563;28;20227;-79
2022/05/30 03:21:33;;;;;;;11.67;5.80;;;;;;;;;;5073753;28;20178;-80
2022/05/30 03:23:59;;;;;;;7.37;4.77;;;;;;;;;;5073176;28;20419;-80
2022/05/30 03:26:25;;;;;;;9.55;5.15;;;;;;;;;;5073466;28;20422;-80
2022/05/30 03:28:51;;;;;;;13.43;5.17;;;;;;;;;;5072224;28;20575;-80
2022/05/30 03:31:17;;;;;;;9.52;4.57;;;;;;;;;;5073166;28;20438;-81
2022/05/30 03:33:43;;;;;;;15.00;5.90;;;;;;;;;;5072641;28;20550;-81
2022/05/30 03:36:13;;;;;;;12.80;5.10;;;;;;;;;;5073303;28;20502;-80
2022/05/30 03:38:39;;;;;;;15.10;5.47;;;;;;;;;;5073428;28;20177;-78
2022/05/30 03:41:05;;;;;;;13.20;5.30;;;;;;;;;;5073204;28;20200;-81
2022/05/30 03:43:31;;;;;;;15.57;5.70;;;;;;;;;;5071601;28;20416;-81
2022/05/30 03:45:57;;;;;;;13.20;5.70;;;;;;;;;;5072903;28;20463;-79
2022/05/30 03:48:23;;;;;;;12.40;4.93;;;;;;;;;;5073146;28;20205;-80
2022/05/30 03:50:49;;;;;;;9.00;5.50;;;;;;;;;;5071732;28;20904;-80
2022/05/30 03:53:16;;;;;;;11.52;5.57;;;;;;;;;;5072689;28;20264;-79
2022/05/30 03:55:43;;;;;;;8.88;4.97;;;;;;;;;;5072814;28;20586;-78
2022/05/30 03:58:09;;;;;;;6.88;5.05;;;;;;;;;;5072948;28;20177;-80
2022/05/30 04:00:36;;;;;;;8.13;5.78;;;;;;;;;;5072861;28;20212;-82
2022/05/30 04:03:02;;;;;;;10.73;6.22;;;;;;;;;;5072587;28;20173;-80
2022/05/30 04:05:28;;;;;;;9.35;5.28;;;;;;;;;;5072564;28;20189;-78
2022/05/30 04:07:54;;;;;;;8.23;5.03;;;;;;;;;;5072705;28;20177;-80
2022/05/30 04:10:21;;;;;;;13.60;5.53;;;;;;;;;;5072838;28;20200;-81
2022/05/30 04:12:47;;;;;;;15.23;5.53;;;;;;;;;;5072824;28;20173;-81
2022/05/30 04:15:21;;;;;;;10.77;5.25;;;;;;;;;;5072660;28;20197;-79
2022/05/30 04:17:47;;;;;;;6.50;5.28;;;;;;;;;;5072881;28;20287;-79
2022/05/30 04:20:13;;;;;;;12.02;5.68;;;;;;;;;;5071285;28;20650;-80
2022/05/30 04:22:39;;;;;;;10.13;5.80;;;;;;;;;;5072798;28;20513;-80
2022/05/30 04:25:06;;;;;;;9.50;5.57;;;;;;;;;;5072290;28;20207;-78
2022/05/30 04:27:32;;;;;;;9.88;5.93;;;;;;;;;;5072707;28;20181;-80
2022/05/30 04:29:58;;;;;;;7.45;5.10;;;;;;;;;;5072580;28;20173;-80
2022/05/30 04:32:24;;;;;;;8.95;5.07;;;;;;;;;;5072420;28;20239;-80
2022/05/30 04:34:51;;;;;;;16.17;6.50;;;;;;;;;;5072261;28;20212;-79
2022/05/30 04:37:17;;;;;;;9.93;5.50;;;;;;;;;;5072561;28;20262;-78
2022/05/30 04:39:43;;;;;;;16.37;6.33;;;;;;;;;;5072741;28;20185;-79
2022/05/30 04:42:09;;;;;;;9.03;6.30;;;;;;;;;;5072490;28;20447;-80
2022/05/30 04:44:35;;;;;;;11.90;6.30;;;;;;;;;;5072039;28;20506;-79
2022/05/30 04:47:01;;;;;;;13.40;6.05;;;;;;;;;;5072534;28;20541;-78
2022/05/30 04:49:28;;;;;;;8.25;5.55;;;;;;;;;;5072239;28;20264;-79
2022/05/30 04:51:54;;;;;;;8.93;6.05;;;;;;;;;;5072316;28;20621;-78
2022/05/30 04:54:21;;;;;;;13.47;6.40;;;;;;;;;;5071811;28;20232;-79
2022/05/30 04:56:47;;;;;;;11.40;6.45;;;;;;;;;;5072318;28;20462;-79
2022/05/30 04:59:14;;;;;;;8.18;5.30;;;;;;;;;;5071067;28;20192;-79
2022/05/30 05:01:40;;;;;;;19.20;6.10;;;;;;;;;;5072403;28;20196;-80
2022/05/30 05:04:08;;;;;;;9.82;6.00;;;;;;;;;;5071924;28;20197;-77
2022/05/30 05:06:34;;;;;;;7.40;5.75;;;;;;;;;;5072029;28;20278;-79
2022/05/30 05:09:05;;;;;;;8.00;6.07;;;;;;;;;;5072195;28;20274;-78
2022/05/30 05:11:32;;;;;;;7.78;5.80;;;;;;;;;;5072181;28;20158;-78
2022/05/30 05:13:58;;;;;;;11.60;6.25;;;;;;;;;;5071898;28;20264;-80
2022/05/30 05:16:25;;;;;;;16.13;6.38;;;;;;;;;;5073822;28;20208;-77
2022/05/30 05:18:52;;;;;;;13.85;6.55;;;;;;;;;;5076210;28;20175;-77
2022/05/30 05:21:19;;;;;;;8.02;5.38;;;;;;;;;;5075001;28;20181;-78
2022/05/30 05:23:46;;;;;;;12.85;5.47;;;;;;;;;;5075976;28;20264;-78
2022/05/30 05:26:12;;;;;;;16.88;6.95;;;;;;;;;;5076097;28;20226;-77
2022/05/30 05:28:38;;;;;;;14.95;6.60;;;;;;;;;;5076145;28;20683;-77
2022/05/30 05:31:06;;;;;;;16.65;6.40;;;;;;;;;;5076555;28;20288;-77
2022/05/30 05:33:32;;;;;;;13.77;6.45;;;;;;;;;;5076161;28;20188;-77
2022/05/30 05:35:58;;;;;;;24.67;7.70;;;;;;;;;;5076301;28;20205;-76
2022/05/30 05:38:24;;;;;;;16.83;7.20;;;;;;;;;;5075963;28;20410;-76
2022/05/30 05:40:50;;;;;;;12.07;8.13;;;;;;;;;;5075937;28;20407;-77
2022/05/30 05:43:16;;;;;;;17.40;8.00;;;;;;;;;;5075605;28;20170;-77
2022/05/30 05:45:43;;;;;;;17.13;8.40;;;;;;;;;;5075896;28;20201;-77
2022/05/30 05:48:09;;;;;;;19.10;8.77;;;;;;;;;;5075673;28;20634;-76
2022/05/30 05:50:38;;;;;;;11.57;7.72;;;;;;;;;;5075612;28;20193;-77
2022/05/30 05:53:04;;;;;;;16.23;6.63;;;;;;;;;;5075349;28;20465;-76
2022/05/30 05:55:30;;;;;;;13.85;7.22;;;;;;;;;;5075558;28;20200;-78
2022/05/30 05:57:56;;;;;;;19.27;7.10;;;;;;;;;;5075581;28;20209;-77
2022/05/30 06:00:22;;;;;;;18.27;7.20;;;;;;;;;;5075529;28;20415;-76
2022/05/30 06:02:48;;;;;;;14.68;7.55;;;;;;;;;;5075126;28;20516;-77
2022/05/30 06:05:15;;;;;;;23.33;7.10;;;;;;;;;;5075114;28;20674;-77
2022/05/30 06:07:42;;;;;;;16.30;7.20;;;;;;;;;;5075363;28;20415;-77
2022/05/30 06:10:10;;;;;;;14.50;7.72;;;;;;;;;;5075496;28;20256;-77
2022/05/30 06:12:37;;;;;;;19.00;7.75;;;;;;;;;;5075327;28;20173;-76
2022/05/30 06:15:04;;;;;;;12.73;6.25;;;;;;;;;;5073487;28;20205;-78
2022/05/30 06:17:32;;;;;;;17.95;6.32;;;;;;;;;;5075201;28;20207;-76
2022/05/30 06:19:59;;;;;;;12.50;5.90;;;;;;;;;;5074145;28;20166;-76
2022/05/30 06:22:25;;;;;;;10.70;6.38;;;;;;;;;;5075454;28;20506;-77
2022/05/30 06:24:51;;;;;;;19.17;6.50;;;;;;;;;;5073461;28;20216;-77
2022/05/30 06:27:19;;;;;;;20.63;6.90;;;;;;;;;;5073700;28;20661;-78
2022/05/30 06:29:45;;;;;;;14.85;6.50;;;;;;;;;;5075148;28;20173;-76
2022/05/30 06:32:11;;;;;;;16.25;6.95;;;;;;;;;;5074860;28;20524;-77
2022/05/30 06:34:37;;;;;;;11.13;6.30;;;;;;;;;;5073505;28;20230;-77
2022/05/30 06:37:04;;;;;;;11.23;5.80;;;;;;;;;;5074679;28;20211;-76
2022/05/30 06:39:30;;;;;;;14.95;6.38;;;;;;;;;;5074774;28;20403;-78
2022/05/30 06:41:56;;;;;;;16.67;6.03;;;;;;;;;;5074915;28;20176;-76
2022/05/30 06:44:22;;;;;;;10.30;5.77;;;;;;;;;;5074456;28;20903;-77
2022/05/30 06:46:47;;;;;;;15.77;5.30;;;;;;;;;;5074789;28;20415;-78
2022/05/30 06:49:16;;;;;;;10.10;5.33;;;;;;;;;;5073293;28;20433;-78
2022/05/30 06:51:42;;;;;;;11.68;5.13;;;;;;;;;;5074715;28;20411;-77
2022/05/30 06:54:08;;;;;;;12.68;5.88;;;;;;;;;;5074237;28;20201;-78
2022/05/30 06:56:35;;;;;;;13.10;5.25;;;;;;;;;;5073251;28;20250;-75
2022/05/30 06:59:02;;;;;;;13.43;6.13;;;;;;;;;;5074389;28;20195;-76
2022/05/30 07:01:29;;;;;;;9.45;5.50;;;;;;;;;;5074214;28;20185;-77
2022/05/30 07:03:55;;;;;;;13.68;4.97;;;;;;;;;;5073876;28;20282;-78
2022/05/30 07:06:23;;;;;;;9.55;5.55;;;;;;;;;;5074264;28;20177;-77
2022/05/30 07:08:49;;;;;;;15.45;6.05;;;;;;;;;;5074412;28;20173;-75
2022/05/30 07:11:16;;;;;;;19.57;6.90;;;;;;;;;;5074040;28;20554;-76
2022/05/30 07:13:42;;;;;;;18.25;6.05;;;;;;;;;;5072373;28;20427;-76
2022/05/30 07:16:09;;;;;;;18.70;5.65;;;;;;;;;;5074200;28;20649;-77
2022/05/30 07:18:35;;;;;;;10.10;6.30;;;;;;;;;;5074194;28;20169;-77
2022/05/30 07:21:03;;;;;;;15.35;6.60;;;;;;;;;;5074173;28;20177;-77
2022/05/30 07:23:30;;;;;;;8.48;5.60;;;;;;;;;;5073614;28;20253;-76
2022/05/30 07:25:57;;;;;;;13.98;6.05;;;;;;;;;;5073855;28;20197;-74
2022/05/30 07:28:25;;;;;;;18.20;6.40;;;;;;;;;;5072734;28;20593;-77
2022/05/30 07:30:51;;;;;;;10.37;4.93;;;;;;;;;;5073884;28;20690;-78
2022/05/30 07:33:17;;;;;;;15.00;5.30;;;;;;;;;;5073622;28;20483;-75
2022/05/30 07:35:44;;;;;;;11.23;5.47;;;;;;;;;;5073725;28;20431;-74
2022/05/30 07:38:10;;;;;;;11.13;4.83;;;;;;;;;;5073344;28;20507;-78
2022/05/30 07:40:36;;;;;;;27.27;6.17;;;;;;;;;;5073588;28;20487;-76
2022/05/30 07:43:02;;;;;;;14.57;5.20;;;;;;;;;;5073301;28;20813;-76
2022/05/30 07:45:28;;;;;;;15.80;5.47;;;;;;;;;;5073504;28;20423;-76
2022/05/30 07:47:54;;;;;;;13.23;5.20;;;;;;;;;;5073495;28;20834;-78
2022/05/30 07:50:20;;;;;;;9.23;4.90;;;;;;;;;;5073532;28;20412;-76
2022/05/30 07:52:46;;;;;;;13.53;4.60;;;;;;;;;;5073404;28;20408;-76
2022/05/30 07:55:12;;;;;;;12.97;4.97;;;;;;;;;;5072983;28;20441;-77
2022/05/30 07:57:54;;;;;;;15.85;4.25;;;;;;;;;;5073432;28;20587;-77
2022/05/30 08:00:21;;;;;;;10.00;4.68;;;;;;;;;;5073354;28;20195;-77
2022/05/30 08:02:47;;;;;;;8.07;4.33;;;;;;;;;;5073148;28;20172;-76
2022/05/30 08:05:15;;;;;;;15.20;4.43;;;;;;;;;;5072921;28;20493;-75
2022/05/30 08:07:42;;;;;;;11.90;3.93;;;;;;;;;;5073134;28;20227;-75
2022/05/30 08:10:09;;;;;;;9.93;4.33;;;;;;;;;;5073310;28;20400;-77
2022/05/30 08:12:35;;;;;;;13.43;5.57;;;;;;;;;;5073420;28;20779;-78
2022/05/30 08:15:01;;;;;;;10.67;4.93;;;;;;;;;;5071459;28;20448;-75
2022/05/30 08:17:27;;;;;;;12.20;5.03;;;;;;;;;;5073088;28;20463;-75
2022/05/30 08:19:53;;;;;;;16.17;5.27;;;;;;;;;;5072931;28;21110;-76
2022/05/30 08:22:22;;;;;;;8.67;3.87;;;;;;;;;;5071699;28;20407;-76
2022/05/30 08:24:48;;;;;;;9.90;3.80;;;;;;;;;;5072862;28;20423;-75
2022/05/30 08:27:14;;;;;;;9.77;4.10;;;;;;;;;;5073348;28;20430;-75
2022/05/30 08:29:42;;;;;;;11.70;4.20;;;;;;;;;;5073319;28;20422;-76
2022/05/30 08:32:08;;;;;;;15.40;3.90;;;;;;;;;;5071465;28;20512;-75
2022/05/30 08:34:39;;;;;;;8.43;3.83;;;;;;;;;;5072739;28;20439;-75
2022/05/30 08:37:06;;;;;;;15.87;5.10;;;;;;;;;;5073140;28;20444;-76
2022/05/30 08:42:22;;;;;;;11.13;3.87;;;;;;;;;;5073118;28;20403;-76
2022/05/30 08:44:48;;;;;;;13.50;5.07;;;;;;;;;;5072630;28;20399;-76
2022/05/30 08:47:32;;;;;;;12.90;4.80;;;;;;;;;;5072973;28;20527;-76
2022/05/30 08:50:04;;;;;;;10.33;4.80;;;;;;;;;;5071538;28;20911;-76
2022/05/30 08:52:34;;;;;;;11.20;4.50;;;;;;;;;;5076279;28;20753;-77
2022/05/30 08:55:03;;;;;;;10.60;4.70;;;;;;;;;;5076388;28;20985;-77
2022/05/30 08:57:35;;;;;;;9.43;4.30;;;;;;;;;;5075375;28;20878;-76
2022/05/30 09:00:04;;;;;;;16.00;5.67;;;;;;;;;;5076743;28;20441;-76
2022/05/30 09:02:51;;;;;;;12.47;4.43;;;;;;;;;;5076492;28;20882;-75
2022/05/30 09:05:25;;;;;;;15.27;5.47;;;;;;;;;;5077141;28;20864;-76
2022/05/30 09:07:53;;;;;;;17.17;5.67;;;;;;;;;;5076538;28;20378;-76
2022/05/30 09:10:23;;;;;;;11.63;5.40;;;;;;;;;;5076094;28;20904;-76
2022/05/30 09:12:51;;;;;;;12.30;5.40;;;;;;;;;;5076603;28;20418;-77
2022/05/30 09:15:41;;;;;;;9.30;4.47;;;;;;;;;;5076438;28;20790;-76
2022/05/30 09:18:09;;;;;;;15.70;4.83;;;;;;;;;;5070696;28;20524;-76
2022/05/30 09:20:35;;;;;;;7.10;4.50;;;;;;;;;;5075961;28;20773;-76
2022/05/30 09:23:02;;;;;;;8.47;4.40;;;;;;;;;;5075936;28;20481;-76
2022/05/30 09:28:17;;;;;;;7.90;4.40;;;;;;;;;;5076463;28;20870;-77
2022/05/30 09:30:53;;;;;;;11.33;4.53;;;;;;;;;;5075834;28;20374;-76
2022/05/30 09:33:28;;;;;;;9.70;4.17;;;;;;;;;;5075758;28;20465;-77
2022/05/30 09:36:13;;;;;;;6.77;3.93;;;;;;;;;;5075942;28;20415;-77
2022/05/30 09:38:47;;;;;;;8.90;4.50;;;;;;;;;;5076070;28;20400;-76
2022/05/30 09:41:16;;;;;;;17.97;6.00;;;;;;;;;;5076189;28;20470;-76
2022/05/30 09:43:50;;;;;;;12.90;4.53;;;;;;;;;;5075470;28;20382;-76
2022/05/30 09:46:19;;;;;;;9.63;4.27;;;;;;;;;;5075942;28;20390;-77
2022/05/30 09:49:21;;;;;;;13.07;5.17;;;;;;;;;;5075722;28;20397;-77
2022/05/30 09:51:48;;;;;;;13.53;3.80;;;;;;;;;;5033746;28;20436;-76
2022/05/30 09:54:23;;;;;;;12.47;3.90;;;;;;;;;;5067187;28;20453;-76
2022/05/30 09:56:50;;;;;;;12.73;4.40;;;;;;;;;;5075288;28;20477;-76
2022/05/30 09:59:29;;;;;;;6.60;3.40;;;;;;;;;;5075442;28;20473;-76
2022/05/30 10:01:56;;;;;;;6.87;3.40;;;;;;;;;;5075252;28;20381;-76
2022/05/30 10:04:38;;;;;;;7.60;3.80;;;;;;;;;;5074997;28;20455;-77
2022/05/30 10:07:07;;;;;;;9.80;4.30;;;;;;;;;;5073988;28;20390;-77
2022/05/30 10:09:34;;;;;;;7.97;4.23;;;;;;;;;;5075412;28;20748;-76
2022/05/30 10:12:00;;;;;;;13.17;4.07;;;;;;;;;;5075377;28;20836;-76
2022/05/30 10:14:29;;;;;;;5.27;3.20;;;;;;;;;;5074940;28;20882;-76
2022/05/30 10:16:57;;;;;;;6.27;3.40;;;;;;;;;;5075067;28;20463;-77
2022/05/30 10:19:28;;;;;;;7.97;4.23;;;;;;;;;;5075307;28;20404;-76
2022/05/30 10:30:30;;;;;;;7.43;4.50;;;;;;;;;;5075340;28;20406;-77
2022/05/30 10:33:07;;;;;;;12.70;5.47;;;;;;;;;;5074786;28;20416;-78
2022/05/30 10:35:39;;;;;;;7.67;4.43;;;;;;;;;;5074940;28;20835;-80
2022/05/30 10:38:12;;;;;;;9.77;4.90;;;;;;;;;;5074935;28;20926;-78
2022/05/30 10:40:38;;;;;;;6.63;3.57;;;;;;;;;;5074899;28;20470;-79
2022/05/30 10:43:07;;;;;;;4.13;3.50;;;;;;;;;;5074447;28;20419;-78
2022/05/30 10:45:52;;;;;;;3.43;2.30;;;;;;;;;;5074656;28;20401;-79
2022/05/30 10:48:26;;;;;;;5.90;3.40;;;;;;;;;;5074637;28;20407;-79
2022/05/30 10:50:58;;;;;;;4.93;2.73;;;;;;;;;;5078854;28;20384;-81
2022/05/30 10:53:43;;;;;;;3.77;2.33;;;;;;;;;;5076937;28;20439;-79
2022/05/30 10:56:17;;;;;;;6.20;3.43;;;;;;;;;;5074605;28;20821;-78
2022/05/30 10:58:49;;;;;;;6.27;3.03;;;;;;;;;;5073491;28;20838;-78
2022/05/30 11:01:37;;;;;;;4.50;2.20;;;;;;;;;;5074257;28;20424;-80
2022/05/30 11:04:13;;;;;;;3.73;1.77;;;;;;;;;;5072691;28;20944;-78
2022/05/30 11:06:42;;;;;;;2.43;1.50;;;;;;;;;;5074342;28;20382;-80
2022/05/30 11:09:14;;;;;;;3.80;1.03;;;;;;;;;;5074118;28;20396;-79
2022/05/30 11:11:41;;;;;;;3.13;1.23;;;;;;;;;;5074283;28;20822;-79
2022/05/30 11:14:26;;;;;;;2.80;1.47;;;;;;;;;;5073200;28;20423;-79
2022/05/30 11:16:59;;;;;;;4.23;2.40;;;;;;;;;;5072771;28;20867;-79
2022/05/30 11:19:52;;;;;;;3.00;2.57;;;;;;;;;;5073991;28;20453;-78
2022/05/30 11:22:18;;;;;;;3.93;2.80;;;;;;;;;;5074226;28;20434;-77
2022/05/30 11:24:46;;;;;;;7.40;2.83;;;;;;;;;;5073561;28;20438;-78
2022/05/30 11:27:17;;;;;;;5.50;2.90;;;;;;;;;;5073905;28;20404;-79
2022/05/30 11:29:54;;;;;;;5.50;3.70;;;;;;;;;;5074046;28;20469;-79
2022/05/30 11:32:38;;;;;;;7.13;4.17;;;;;;;;;;5073741;28;20401;-77
2022/05/30 11:35:23;;;;;;;11.13;4.93;;;;;;;;;;5073424;28;20435;-78
2022/05/30 11:37:55;;;;;;;8.37;4.00;;;;;;;;;;5073656;28;20820;-79
2022/05/30 11:40:31;;;;;;;6.33;4.20;;;;;;;;;;5073574;28;20449;-76
2022/05/30 11:43:29;;;;;;;7.17;3.60;;;;;;;;;;5073567;28;20938;-76
2022/05/30 11:45:55;;;;;;;6.27;3.83;;;;;;;;;;5082100;28;20856;-76
2022/05/30 11:48:24;;;;;;;7.80;4.10;;;;;;;;;;5094086;28;20392;-75
2022/05/30 11:50:54;;;;;;;6.20;4.00;;;;;;;;;;5094024;28;20878;-75
2022/05/30 11:53:20;;;;;;;10.80;4.43;;;;;;;;;;5093481;28;20744;-77
2022/05/30 11:56:05;;;;;;;13.10;3.80;;;;;;;;;;5093577;28;20439;-78
2022/05/30 11:58:42;;;;;;;6.07;3.90;;;;;;;;;;5093785;28;20897;-79
2022/05/30 12:01:08;;;;;;;8.70;4.10;;;;;;;;;;5093682;28;20430;-77
2022/05/30 12:03:54;;;;;;;9.17;4.40;;;;;;;;;;5093263;28;20411;-77
2022/05/30 12:06:26;;;;;;;7.97;4.27;;;;;;;;;;5093587;28;20383;-79
2022/05/30 12:09:01;;;;;;;10.87;4.77;;;;;;;;;;5093661;28;20468;-78
2022/05/30 12:11:46;;;;;;;10.77;4.27;;;;;;;;;;5093401;28;20819;-77
2022/05/30 12:14:12;;;;;;;7.47;3.90;;;;;;;;;;5092971;28;20454;-77
2022/05/30 12:16:40;;;;;;;7.87;3.60;;;;;;;;;;5093444;28;20510;-77
2022/05/30 12:24:40;;;;;;;4.73;3.80;;;;;;;;;;5093032;28;20912;-77
2022/05/30 12:27:09;;;;;;;8.47;4.50;;;;;;;;;;5093294;28;20969;-79
2022/05/30 12:29:42;;;;;;;5.30;3.37;;;;;;;;;;5093244;28;20392;-78
2022/05/30 12:32:36;;;;;;;6.53;2.63;;;;;;;;;;5093099;28;20405;-78
2022/05/30 12:35:05;;;;;;;4.57;3.20;;;;;;;;;;5093035;28;20960;-77
2022/05/30 12:37:47;;;;;;;4.33;3.30;;;;;;;;;;5091953;28;20997;-79
2022/05/30 12:40:22;;;;;;;3.73;2.47;;;;;;;;;;5093395;28;20406;-77
2022/05/30 12:42:57;;;;;;;4.23;2.80;;;;;;;;;;5093138;28;20906;-77
2022/05/30 12:45:35;;;;;;;6.10;3.10;;;;;;;;;;5093256;28;20438;-76
2022/05/30 12:48:09;;;;;;;3.77;2.50;;;;;;;;;;5093146;28;20446;-76
2022/05/30 12:50:35;;;;;;;6.47;2.83;;;;;;;;;;5093329;28;20732;-79
2022/05/30 12:53:03;;;;;;;6.57;3.23;;;;;;;;;;5093152;28;20489;-79
2022/05/30 12:55:40;;;;;;;7.40;2.73;;;;;;;;;;5093818;28;20461;-77
2022/05/30 12:58:06;;;;;;;7.57;2.80;;;;;;;;;;5092973;28;20461;-78
2022/05/30 13:00:42;;;;;;;4.80;2.37;;;;;;;;;;5093368;28;20415;-78
2022/05/30 13:03:22;;;;;;;6.70;2.80;;;;;;;;;;5093141;28;20377;-78
2022/05/30 13:06:02;;;;;;;6.20;3.00;;;;;;;;;;5092792;28;20397;-79
2022/05/30 13:08:47;;;;;;;3.10;2.33;;;;;;;;;;5092890;28;20388;-78
2022/05/30 13:11:22;;;;;;;3.73;2.53;;;;;;;;;;5092993;28;20405;-77
2022/05/30 13:13:49;;;;;;;5.97;3.30;;;;;;;;;;5092547;28;20402;-76
2022/05/30 13:16:25;;;;;;;9.37;2.37;;;;;;;;;;5092712;28;20440;-77
2022/05/30 13:18:51;;;;;;;3.70;1.73;;;;;;;;;;5092833;28;20395;-76
2022/05/30 13:21:20;;;;;;;2.50;1.53;;;;;;;;;;5092922;28;20385;-77
2022/05/30 13:23:46;;;;;;;3.20;2.13;;;;;;;;;;5092633;28;20410;-77
2022/05/30 13:26:13;;;;;;;5.20;1.83;;;;;;;;;;5093134;28;20419;-79
2022/05/30 13:28:41;;;;;;;3.70;2.10;;;;;;;;;;5092972;28;20472;-79
2022/05/30 13:31:11;;;;;;;3.20;1.83;;;;;;;;;;5092286;28;20409;-79
2022/05/30 13:33:39;;;;;;;3.50;2.07;;;;;;;;;;5092082;28;20537;-77
2022/05/30 13:36:15;;;;;;;2.10;1.53;;;;;;;;;;5092770;28;20399;-80
2022/05/30 13:38:42;;;;;;;5.23;2.40;;;;;;;;;;5096300;28;20373;-76
2022/05/30 13:41:11;;;;;;;3.90;1.80;;;;;;;;;;5096537;28;20378;-77
2022/05/30 13:43:37;;;;;;;5.03;2.13;;;;;;;;;;5095605;28;20406;-79
2022/05/30 13:46:03;;;;;;;4.07;2.20;;;;;;;;;;5096205;28;20426;-76
2022/05/30 13:48:29;;;;;;;4.70;2.30;;;;;;;;;;5096286;28;20484;-79
2022/05/30 13:51:07;;;;;;;4.83;2.27;;;;;;;;;;5095095;28;20381;-80
2022/05/30 13:53:41;;;;;;;4.83;1.90;;;;;;;;;;5094506;28;20402;-78
2022/05/30 13:56:07;;;;;;;5.83;2.43;;;;;;;;;;5096002;28;20441;-79
2022/05/30 13:58:37;;;;;;;3.73;2.43;;;;;;;;;;5095830;28;20476;-79
2022/05/30 14:01:05;;;;;;;4.60;2.23;;;;;;;;;;5096221;28;20399;-79
2022/05/30 14:03:31;;;;;;;3.77;1.70;;;;;;;;;;5095652;28;20381;-78
2022/05/30 14:05:57;;;;;;;4.07;1.60;;;;;;;;;;5095812;28;20423;-78
2022/05/30 14:08:30;;;;;;;3.43;1.87;;;;;;;;;;5095642;28;20497;-75
2022/05/30 14:10:56;;;;;;;5.30;2.07;;;;;;;;;;5094762;28;20424;-78
2022/05/30 14:13:33;;;;;;;4.57;2.00;;;;;;;;;;5095470;28;20489;-78
2022/05/30 14:16:00;;;;;;;6.73;2.20;;;;;;;;;;5095458;28;20462;-79
2022/05/30 14:18:35;;;;;;;3.63;1.40;;;;;;;;;;5095551;28;20414;-76
2022/05/30 14:21:02;;;;;;;4.60;1.60;;;;;;;;;;5095655;28;20920;-79
2022/05/30 14:23:29;;;;;;;4.03;1.60;;;;;;;;;;5095143;28;20456;-80
2022/05/30 14:25:55;;;;;;;4.57;1.93;;;;;;;;;;5095480;28;20528;-79
2022/05/30 14:28:25;;;;;;;4.87;1.93;;;;;;;;;;5095527;28;20425;-80
2022/05/30 14:30:51;;;;;;;3.63;1.70;;;;;;;;;;5095107;28;20957;-78
2022/05/30 14:33:17;;;;;;;2.63;1.37;;;;;;;;;;5094994;28;20783;-77
2022/05/30 14:35:43;;;;;;;2.73;2.10;;;;;;;;;;5095212;28;20409;-76
2022/05/30 14:38:10;;;;;;;4.50;1.90;;;;;;;;;;5095367;28;20433;-81
2022/05/30 14:40:41;;;;;;;4.70;1.57;;;;;;;;;;5095477;28;20853;-77
2022/05/30 14:43:30;;;;;;;2.70;1.40;;;;;;;;;;5094998;28;20460;-76
2022/05/30 14:46:04;;;;;;;3.63;2.27;;;;;;;;;;5094980;28;20423;-78
2022/05/30 14:48:31;;;;;;;3.30;1.60;;;;;;;;;;5093915;28;20430;-78
2022/05/30 14:51:00;;;;;;;2.33;1.70;;;;;;;;;;5094828;28;20407;-77
2022/05/30 14:53:28;;;;;;;5.60;2.30;;;;;;;;;;5094701;28;20452;-79
2022/05/30 14:56:14;;;;;;;7.70;2.00;;;;;;;;;;5094898;28;20426;-77
2022/05/30 14:58:42;;;;;;;4.37;1.80;;;;;;;;;;5094684;28;20517;-78
2022/05/30 15:01:09;;;;;;;5.23;1.87;;;;;;;;;;5093345;28;20403;-78
2022/05/30 15:06:23;;;;;;;4.30;1.80;;;;;;;;;;5094957;28;20389;-77
2022/05/30 15:08:50;;;;;;;4.20;1.60;;;;;;;;;;5093269;28;20415;-78
2022/05/30 15:11:22;;;;;;;2.60;1.30;;;;;;;;;;5094644;28;20741;-81
2022/05/30 15:13:49;;;;;;;5.50;1.40;;;;;;;;;;5094097;28;20456;-80
2022/05/30 15:16:16;;;;;;;4.50;1.90;;;;;;;;;;5094378;28;20398;-80
2022/05/30 15:18:42;;;;;;;3.00;1.73;;;;;;;;;;5094471;28;20482;-80